sensor_id;sensor_type;location;lat;lon;timestamp;P1;durP1;ratioP1;P2;durP2;ratioP2
9447;SDS011;4762;48.128;11.376;2023-05-08T00:00:55;3.50;;;2.03;;
9447;SDS011;4762;48.128;11.376;2023-05-08T00:02:57;3.77;;;2.10;;
9447;SDS011;4762;48.128;11.376;2023-05-08T00:04:59;5.23;;;2.53;;
9447;SDS011;4762;48.128;11.376;2023-05-08T00:07:01;2.73;;;1.80;;
9447;SDS011;4762;48.128;11.376;2023-05-08T00:09:03;3.17;;;1.37;;
9447;SDS011;4762;48.128;11.376;2023-05-08T00:11:06;2.47;;;1.37;;
9447;SDS011;4762;48.128;11.376;2023-05-08T00:13:08;3.33;;;1.80;;
9447;SDS011;4762;48.128;11.376;2023-05-08T00:15:10;2.40;;;1.53;;
9447;SDS011;4762;48.128;11.376;2023-05-08T00:17:12;4.10;;;1.83;;
9447;SDS011;4762;48.128;11.376;2023-05-08T00:19:14;2.93;;;1.70;;
9447;SDS011;4762;48.128;11.376;2023-05-08T00:21:17;8.00;;;1.47;;
9447;SDS011;4762;48.128;11.376;2023-05-08T00:23:19;2.53;;;1.40;;
9447;SDS011;4762;48.128;11.376;2023-05-08T00:25:21;3.83;;;1.93;;
9447;SDS011;4762;48.128;11.376;2023-05-08T00:27:23;2.40;;;1.40;;
9447;SDS011;4762;48.128;11.376;2023-05-08T00:29:26;2.87;;;1.93;;
9447;SDS011;4762;48.128;11.376;2023-05-08T00:31:28;6.00;;;1.70;;
9447;SDS011;4762;48.128;11.376;2023-05-08T00:33:30;3.23;;;1.67;;
9447;SDS011;4762;48.128;11.376;2023-05-08T00:35:32;3.60;;;1.73;;
9447;SDS011;4762;48.128;11.376;2023-05-08T00:37:34;2.70;;;1.50;;
9447;SDS011;4762;48.128;11.376;2023-05-08T00:39:37;3.50;;;1.97;;
9447;SDS011;4762;48.128;11.376;2023-05-08T00:41:39;3.07;;;1.80;;
9447;SDS011;4762;48.128;11.376;2023-05-08T00:43:41;2.53;;;1.33;;
9447;SDS011;4762;48.128;11.376;2023-05-08T00:45:43;2.67;;;1.33;;
9447;SDS011;4762;48.128;11.376;2023-05-08T00:47:45;3.53;;;1.80;;
9447;SDS011;4762;48.128;11.376;2023-05-08T00:49:48;3.03;;;1.57;;
9447;SDS011;4762;48.128;11.376;2023-05-08T00:51:51;7.03;;;1.67;;
9447;SDS011;4762;48.128;11.376;2023-05-08T00:53:52;2.53;;;1.23;;
9447;SDS011;4762;48.128;11.376;2023-05-08T00:55:55;2.50;;;1.30;;
9447;SDS011;4762;48.128;11.376;2023-05-08T00:57:57;4.93;;;2.30;;
9447;SDS011;4762;48.128;11.376;2023-05-08T01:00:00;2.73;;;1.53;;
9447;SDS011;4762;48.128;11.376;2023-05-08T01:02:02;2.90;;;1.53;;
9447;SDS011;4762;48.128;11.376;2023-05-08T01:04:05;3.20;;;1.70;;
9447;SDS011;4762;48.128;11.376;2023-05-08T01:06:07;4.23;;;2.10;;
9447;SDS011;4762;48.128;11.376;2023-05-08T01:08:09;2.77;;;1.40;;
9447;SDS011;4762;48.128;11.376;2023-05-08T01:10:11;3.17;;;1.67;;
9447;SDS011;4762;48.128;11.376;2023-05-08T01:15:37;3.10;;;1.67;;
9447;SDS011;4762;48.128;11.376;2023-05-08T01:17:15;3.47;;;1.70;;
9447;SDS011;4762;48.128;11.376;2023-05-08T01:19:39;4.17;;;1.77;;
9447;SDS011;4762;48.128;11.376;2023-05-08T01:21:52;3.17;;;2.13;;
9447;SDS011;4762;48.128;11.376;2023-05-08T01:26:32;3.03;;;1.60;;
9447;SDS011;4762;48.128;11.376;2023-05-08T01:30:59;2.10;;;1.30;;
9447;SDS011;4762;48.128;11.376;2023-05-08T01:33:03;2.83;;;1.33;;
9447;SDS011;4762;48.128;11.376;2023-05-08T01:37:31;2.90;;;1.80;;
9447;SDS011;4762;48.128;11.376;2023-05-08T01:41:40;2.90;;;1.67;;
9447;SDS011;4762;48.128;11.376;2023-05-08T01:43:47;4.00;;;2.00;;
9447;SDS011;4762;48.128;11.376;2023-05-08T01:45:49;4.27;;;2.03;;
9447;SDS011;4762;48.128;11.376;2023-05-08T01:47:55;3.27;;;1.70;;
9447;SDS011;4762;48.128;11.376;2023-05-08T01:49:57;3.07;;;1.93;;
9447;SDS011;4762;48.128;11.376;2023-05-08T01:52:02;4.40;;;2.10;;
9447;SDS011;4762;48.128;11.376;2023-05-08T01:54:04;4.30;;;1.97;;
9447;SDS011;4762;48.128;11.376;2023-05-08T01:56:09;3.13;;;1.83;;
9447;SDS011;4762;48.128;11.376;2023-05-08T01:58:10;3.73;;;2.10;;
9447;SDS011;4762;48.128;11.376;2023-05-08T02:00:13;3.77;;;1.87;;
9447;SDS011;4762;48.128;11.376;2023-05-08T02:02:15;2.97;;;1.80;;
9447;SDS011;4762;48.128;11.376;2023-05-08T02:04:18;2.40;;;1.40;;
9447;SDS011;4762;48.128;11.376;2023-05-08T02:06:20;4.37;;;2.20;;
9447;SDS011;4762;48.128;11.376;2023-05-08T02:08:22;3.40;;;1.70;;
9447;SDS011;4762;48.128;11.376;2023-05-08T02:10:25;2.90;;;1.77;;
9447;SDS011;4762;48.128;11.376;2023-05-08T02:12:26;6.13;;;2.30;;
9447;SDS011;4762;48.128;11.376;2023-05-08T02:14:29;6.33;;;2.20;;
9447;SDS011;4762;48.128;11.376;2023-05-08T02:16:31;2.93;;;1.10;;
9447;SDS011;4762;48.128;11.376;2023-05-08T02:18:33;3.50;;;1.90;;
9447;SDS011;4762;48.128;11.376;2023-05-08T02:20:36;3.33;;;1.77;;
9447;SDS011;4762;48.128;11.376;2023-05-08T02:22:38;2.67;;;1.47;;
9447;SDS011;4762;48.128;11.376;2023-05-08T02:24:40;3.50;;;2.03;;
9447;SDS011;4762;48.128;11.376;2023-05-08T02:26:43;2.53;;;1.40;;
9447;SDS011;4762;48.128;11.376;2023-05-08T02:28:44;3.30;;;1.70;;
9447;SDS011;4762;48.128;11.376;2023-05-08T02:30:46;5.90;;;1.90;;
9447;SDS011;4762;48.128;11.376;2023-05-08T02:32:49;4.53;;;2.20;;
9447;SDS011;4762;48.128;11.376;2023-05-08T02:34:52;7.83;;;2.83;;
9447;SDS011;4762;48.128;11.376;2023-05-08T02:36:54;3.33;;;2.13;;
9447;SDS011;4762;48.128;11.376;2023-05-08T02:38:56;4.17;;;2.20;;
9447;SDS011;4762;48.128;11.376;2023-05-08T02:40:59;4.87;;;2.30;;
9447;SDS011;4762;48.128;11.376;2023-05-08T02:43:02;2.87;;;2.00;;
9447;SDS011;4762;48.128;11.376;2023-05-08T02:45:05;3.47;;;2.40;;
9447;SDS011;4762;48.128;11.376;2023-05-08T02:47:15;5.40;;;2.20;;
9447;SDS011;4762;48.128;11.376;2023-05-08T02:49:23;6.90;;;3.37;;
9447;SDS011;4762;48.128;11.376;2023-05-08T02:51:28;4.70;;;2.57;;
9447;SDS011;4762;48.128;11.376;2023-05-08T02:53:32;11.03;;;2.83;;
9447;SDS011;4762;48.128;11.376;2023-05-08T02:55:41;2.90;;;2.03;;
9447;SDS011;4762;48.128;11.376;2023-05-08T02:57:52;4.20;;;2.70;;
9447;SDS011;4762;48.128;11.376;2023-05-08T02:59:56;4.37;;;2.63;;
9447;SDS011;4762;48.128;11.376;2023-05-08T03:02:13;5.00;;;3.00;;
9447;SDS011;4762;48.128;11.376;2023-05-08T03:04:16;5.20;;;3.30;;
9447;SDS011;4762;48.128;11.376;2023-05-08T03:06:16;5.03;;;3.37;;
9447;SDS011;4762;48.128;11.376;2023-05-08T03:08:20;4.73;;;3.10;;
9447;SDS011;4762;48.128;11.376;2023-05-08T03:10:24;7.57;;;4.33;;
9447;SDS011;4762;48.128;11.376;2023-05-08T03:12:25;5.47;;;3.47;;
9447;SDS011;4762;48.128;11.376;2023-05-08T03:14:26;5.33;;;3.50;;
9447;SDS011;4762;48.128;11.376;2023-05-08T03:16:29;8.07;;;4.27;;
9447;SDS011;4762;48.128;11.376;2023-05-08T03:18:35;5.70;;;3.57;;
9447;SDS011;4762;48.128;11.376;2023-05-08T03:20:37;8.10;;;3.13;;
9447;SDS011;4762;48.128;11.376;2023-05-08T03:22:39;10.43;;;4.33;;
9447;SDS011;4762;48.128;11.376;2023-05-08T03:24:41;8.80;;;3.40;;
9447;SDS011;4762;48.128;11.376;2023-05-08T03:26:43;7.70;;;4.00;;
9447;SDS011;4762;48.128;11.376;2023-05-08T03:28:48;7.67;;;3.80;;
9447;SDS011;4762;48.128;11.376;2023-05-08T03:30:50;8.57;;;4.37;;
9447;SDS011;4762;48.128;11.376;2023-05-08T03:32:53;7.70;;;4.97;;
9447;SDS011;4762;48.128;11.376;2023-05-08T03:34:56;7.00;;;4.33;;
9447;SDS011;4762;48.128;11.376;2023-05-08T03:36:58;5.73;;;3.70;;
9447;SDS011;4762;48.128;11.376;2023-05-08T03:39:00;4.93;;;3.20;;
9447;SDS011;4762;48.128;11.376;2023-05-08T03:41:02;6.57;;;3.77;;
9447;SDS011;4762;48.128;11.376;2023-05-08T03:43:05;6.00;;;3.80;;
9447;SDS011;4762;48.128;11.376;2023-05-08T03:45:08;10.73;;;3.83;;
9447;SDS011;4762;48.128;11.376;2023-05-08T03:47:10;4.73;;;3.70;;
9447;SDS011;4762;48.128;11.376;2023-05-08T03:49:13;5.67;;;3.10;;
9447;SDS011;4762;48.128;11.376;2023-05-08T03:51:15;8.50;;;4.93;;
9447;SDS011;4762;48.128;11.376;2023-05-08T03:53:17;8.30;;;4.00;;
9447;SDS011;4762;48.128;11.376;2023-05-08T03:55:19;6.20;;;4.27;;
9447;SDS011;4762;48.128;11.376;2023-05-08T03:57:23;7.63;;;4.23;;
9447;SDS011;4762;48.128;11.376;2023-05-08T03:59:27;7.57;;;4.43;;
9447;SDS011;4762;48.128;11.376;2023-05-08T04:01:47;4.00;;;2.70;;
9447;SDS011;4762;48.128;11.376;2023-05-08T04:03:53;6.00;;;3.53;;
9447;SDS011;4762;48.128;11.376;2023-05-08T04:05:58;7.00;;;3.73;;
9447;SDS011;4762;48.128;11.376;2023-05-08T04:08:02;6.10;;;3.67;;
9447;SDS011;4762;48.128;11.376;2023-05-08T04:10:06;4.50;;;3.03;;
9447;SDS011;4762;48.128;11.376;2023-05-08T04:12:11;7.13;;;3.13;;
9447;SDS011;4762;48.128;11.376;2023-05-08T04:14:12;7.77;;;3.90;;
9447;SDS011;4762;48.128;11.376;2023-05-08T04:16:16;5.10;;;3.30;;
9447;SDS011;4762;48.128;11.376;2023-05-08T04:18:20;10.17;;;4.47;;
9447;SDS011;4762;48.128;11.376;2023-05-08T04:20:20;10.50;;;3.00;;
9447;SDS011;4762;48.128;11.376;2023-05-08T04:22:22;9.37;;;3.43;;
9447;SDS011;4762;48.128;11.376;2023-05-08T04:24:24;6.63;;;3.80;;
9447;SDS011;4762;48.128;11.376;2023-05-08T04:26:27;7.17;;;3.20;;
9447;SDS011;4762;48.128;11.376;2023-05-08T04:28:29;4.90;;;3.37;;
9447;SDS011;4762;48.128;11.376;2023-05-08T04:30:32;9.60;;;4.30;;
9447;SDS011;4762;48.128;11.376;2023-05-08T04:32:35;7.80;;;3.67;;
9447;SDS011;4762;48.128;11.376;2023-05-08T04:34:37;5.30;;;3.57;;
9447;SDS011;4762;48.128;11.376;2023-05-08T04:36:45;4.23;;;3.07;;
9447;SDS011;4762;48.128;11.376;2023-05-08T04:38:47;5.10;;;3.50;;
9447;SDS011;4762;48.128;11.376;2023-05-08T04:40:50;8.20;;;4.10;;
9447;SDS011;4762;48.128;11.376;2023-05-08T04:42:52;4.77;;;3.27;;
9447;SDS011;4762;48.128;11.376;2023-05-08T04:44:54;4.67;;;3.10;;
9447;SDS011;4762;48.128;11.376;2023-05-08T04:46:56;6.37;;;3.53;;
9447;SDS011;4762;48.128;11.376;2023-05-08T04:48:59;6.60;;;3.63;;
9447;SDS011;4762;48.128;11.376;2023-05-08T04:51:01;8.20;;;5.00;;
9447;SDS011;4762;48.128;11.376;2023-05-08T04:53:03;5.90;;;4.33;;
9447;SDS011;4762;48.128;11.376;2023-05-08T04:55:06;5.50;;;3.87;;
9447;SDS011;4762;48.128;11.376;2023-05-08T04:57:08;6.00;;;3.60;;
9447;SDS011;4762;48.128;11.376;2023-05-08T04:59:11;5.43;;;3.10;;
9447;SDS011;4762;48.128;11.376;2023-05-08T05:01:13;4.40;;;3.10;;
9447;SDS011;4762;48.128;11.376;2023-05-08T05:03:15;5.20;;;4.00;;
9447;SDS011;4762;48.128;11.376;2023-05-08T05:05:17;6.83;;;4.23;;
9447;SDS011;4762;48.128;11.376;2023-05-08T05:07:20;9.10;;;2.93;;
9447;SDS011;4762;48.128;11.376;2023-05-08T05:09:22;6.10;;;3.27;;
9447;SDS011;4762;48.128;11.376;2023-05-08T05:11:24;4.90;;;3.20;;
9447;SDS011;4762;48.128;11.376;2023-05-08T05:13:27;5.97;;;3.20;;
9447;SDS011;4762;48.128;11.376;2023-05-08T05:15:29;5.53;;;3.87;;
9447;SDS011;4762;48.128;11.376;2023-05-08T05:17:31;8.83;;;3.40;;
9447;SDS011;4762;48.128;11.376;2023-05-08T05:19:33;6.07;;;3.20;;
9447;SDS011;4762;48.128;11.376;2023-05-08T05:21:36;5.00;;;3.57;;
9447;SDS011;4762;48.128;11.376;2023-05-08T05:23:39;5.00;;;3.33;;
9447;SDS011;4762;48.128;11.376;2023-05-08T05:25:41;4.23;;;2.93;;
9447;SDS011;4762;48.128;11.376;2023-05-08T05:27:43;5.80;;;3.60;;
9447;SDS011;4762;48.128;11.376;2023-05-08T05:29:46;5.17;;;3.43;;
9447;SDS011;4762;48.128;11.376;2023-05-08T05:31:48;4.70;;;2.87;;
9447;SDS011;4762;48.128;11.376;2023-05-08T05:33:51;8.53;;;5.03;;
9447;SDS011;4762;48.128;11.376;2023-05-08T05:35:54;13.23;;;4.00;;
9447;SDS011;4762;48.128;11.376;2023-05-08T05:37:56;8.50;;;3.50;;
9447;SDS011;4762;48.128;11.376;2023-05-08T05:40:02;5.70;;;3.20;;
9447;SDS011;4762;48.128;11.376;2023-05-08T05:42:05;5.90;;;4.03;;
9447;SDS011;4762;48.128;11.376;2023-05-08T05:44:08;5.47;;;3.77;;
9447;SDS011;4762;48.128;11.376;2023-05-08T05:46:10;9.00;;;4.23;;
9447;SDS011;4762;48.128;11.376;2023-05-08T05:48:12;8.53;;;4.00;;
9447;SDS011;4762;48.128;11.376;2023-05-08T05:50:15;6.07;;;3.37;;
9447;SDS011;4762;48.128;11.376;2023-05-08T05:52:17;7.30;;;3.60;;
9447;SDS011;4762;48.128;11.376;2023-05-08T05:54:20;6.70;;;4.30;;
9447;SDS011;4762;48.128;11.376;2023-05-08T05:56:25;8.00;;;4.77;;
9447;SDS011;4762;48.128;11.376;2023-05-08T05:58:27;5.87;;;4.00;;
9447;SDS011;4762;48.128;11.376;2023-05-08T06:00:30;4.90;;;3.50;;
9447;SDS011;4762;48.128;11.376;2023-05-08T06:02:34;9.07;;;3.83;;
9447;SDS011;4762;48.128;11.376;2023-05-08T06:04:35;6.57;;;4.20;;
9447;SDS011;4762;48.128;11.376;2023-05-08T06:06:37;6.40;;;3.90;;
9447;SDS011;4762;48.128;11.376;2023-05-08T06:08:39;6.87;;;4.43;;
9447;SDS011;4762;48.128;11.376;2023-05-08T06:10:41;7.73;;;4.10;;
9447;SDS011;4762;48.128;11.376;2023-05-08T06:12:44;8.67;;;4.97;;
9447;SDS011;4762;48.128;11.376;2023-05-08T06:14:46;6.87;;;4.00;;
9447;SDS011;4762;48.128;11.376;2023-05-08T06:16:48;8.83;;;4.20;;
9447;SDS011;4762;48.128;11.376;2023-05-08T06:18:51;6.67;;;4.30;;
9447;SDS011;4762;48.128;11.376;2023-05-08T06:20:56;6.13;;;4.30;;
9447;SDS011;4762;48.128;11.376;2023-05-08T06:22:59;11.07;;;4.57;;
9447;SDS011;4762;48.128;11.376;2023-05-08T06:25:02;6.47;;;4.10;;
9447;SDS011;4762;48.128;11.376;2023-05-08T06:27:04;10.93;;;5.20;;
9447;SDS011;4762;48.128;11.376;2023-05-08T06:29:06;6.70;;;4.67;;
9447;SDS011;4762;48.128;11.376;2023-05-08T06:31:08;5.87;;;3.20;;
9447;SDS011;4762;48.128;11.376;2023-05-08T06:33:10;6.30;;;3.73;;
9447;SDS011;4762;48.128;11.376;2023-05-08T06:35:13;13.17;;;4.20;;
9447;SDS011;4762;48.128;11.376;2023-05-08T06:37:15;8.70;;;4.33;;
9447;SDS011;4762;48.128;11.376;2023-05-08T06:39:18;9.87;;;4.53;;
9447;SDS011;4762;48.128;11.376;2023-05-08T06:41:20;7.50;;;4.17;;
9447;SDS011;4762;48.128;11.376;2023-05-08T06:43:22;7.90;;;5.30;;
9447;SDS011;4762;48.128;11.376;2023-05-08T06:45:24;5.80;;;3.40;;
9447;SDS011;4762;48.128;11.376;2023-05-08T06:47:27;5.10;;;3.67;;
9447;SDS011;4762;48.128;11.376;2023-05-08T06:49:29;6.40;;;3.83;;
9447;SDS011;4762;48.128;11.376;2023-05-08T06:51:31;4.57;;;3.67;;
9447;SDS011;4762;48.128;11.376;2023-05-08T06:53:33;5.50;;;3.17;;
9447;SDS011;4762;48.128;11.376;2023-05-08T06:55:36;11.97;;;5.07;;
9447;SDS011;4762;48.128;11.376;2023-05-08T06:57:38;8.17;;;3.83;;
9447;SDS011;4762;48.128;11.376;2023-05-08T06:59:40;10.07;;;4.17;;
9447;SDS011;4762;48.128;11.376;2023-05-08T07:01:42;8.83;;;4.53;;
9447;SDS011;4762;48.128;11.376;2023-05-08T07:03:45;5.40;;;3.63;;
9447;SDS011;4762;48.128;11.376;2023-05-08T07:05:47;7.80;;;4.53;;
9447;SDS011;4762;48.128;11.376;2023-05-08T07:07:49;5.93;;;3.73;;
9447;SDS011;4762;48.128;11.376;2023-05-08T07:09:52;9.83;;;4.77;;
9447;SDS011;4762;48.128;11.376;2023-05-08T07:11:54;4.70;;;3.27;;
9447;SDS011;4762;48.128;11.376;2023-05-08T07:13:56;8.37;;;4.63;;
9447;SDS011;4762;48.128;11.376;2023-05-08T07:15:58;11.10;;;4.37;;
9447;SDS011;4762;48.128;11.376;2023-05-08T07:18:01;5.90;;;4.13;;
9447;SDS011;4762;48.128;11.376;2023-05-08T07:20:03;6.50;;;4.13;;
9447;SDS011;4762;48.128;11.376;2023-05-08T07:22:05;12.27;;;4.60;;
9447;SDS011;4762;48.128;11.376;2023-05-08T07:24:07;7.80;;;3.80;;
9447;SDS011;4762;48.128;11.376;2023-05-08T07:26:10;7.23;;;4.43;;
9447;SDS011;4762;48.128;11.376;2023-05-08T07:28:12;7.73;;;4.23;;
9447;SDS011;4762;48.128;11.376;2023-05-08T07:30:14;8.47;;;4.63;;
9447;SDS011;4762;48.128;11.376;2023-05-08T07:32:16;8.33;;;3.90;;
9447;SDS011;4762;48.128;11.376;2023-05-08T07:34:19;6.80;;;4.53;;
9447;SDS011;4762;48.128;11.376;2023-05-08T07:36:21;7.03;;;4.37;;
9447;SDS011;4762;48.128;11.376;2023-05-08T07:38:23;20.77;;;4.13;;
9447;SDS011;4762;48.128;11.376;2023-05-08T07:40:25;7.70;;;4.00;;
9447;SDS011;4762;48.128;11.376;2023-05-08T07:42:28;5.70;;;4.03;;
9447;SDS011;4762;48.128;11.376;2023-05-08T07:44:30;9.10;;;4.17;;
9447;SDS011;4762;48.128;11.376;2023-05-08T07:46:32;7.60;;;3.50;;
9447;SDS011;4762;48.128;11.376;2023-05-08T07:48:34;6.30;;;3.90;;
9447;SDS011;4762;48.128;11.376;2023-05-08T07:50:37;5.90;;;3.73;;
9447;SDS011;4762;48.128;11.376;2023-05-08T07:52:39;7.27;;;4.10;;
9447;SDS011;4762;48.128;11.376;2023-05-08T07:54:41;8.20;;;4.57;;
9447;SDS011;4762;48.128;11.376;2023-05-08T07:56:44;7.53;;;4.17;;
9447;SDS011;4762;48.128;11.376;2023-05-08T07:58:46;5.20;;;4.00;;
9447;SDS011;4762;48.128;11.376;2023-05-08T08:00:48;7.47;;;3.87;;
9447;SDS011;4762;48.128;11.376;2023-05-08T08:02:50;11.17;;;5.80;;
9447;SDS011;4762;48.128;11.376;2023-05-08T08:04:52;8.10;;;5.07;;
9447;SDS011;4762;48.128;11.376;2023-05-08T08:06:55;9.20;;;5.20;;
9447;SDS011;4762;48.128;11.376;2023-05-08T08:08:57;7.63;;;5.30;;
9447;SDS011;4762;48.128;11.376;2023-05-08T08:10:59;6.37;;;4.37;;
9447;SDS011;4762;48.128;11.376;2023-05-08T08:13:01;8.63;;;4.80;;
9447;SDS011;4762;48.128;11.376;2023-05-08T08:15:04;6.80;;;4.53;;
9447;SDS011;4762;48.128;11.376;2023-05-08T08:17:08;6.40;;;4.80;;
9447;SDS011;4762;48.128;11.376;2023-05-08T08:19:10;7.10;;;4.33;;
9447;SDS011;4762;48.128;11.376;2023-05-08T08:21:12;7.33;;;4.70;;
9447;SDS011;4762;48.128;11.376;2023-05-08T08:23:15;6.20;;;4.17;;
9447;SDS011;4762;48.128;11.376;2023-05-08T08:25:17;6.63;;;3.90;;
9447;SDS011;4762;48.128;11.376;2023-05-08T08:27:19;8.40;;;5.17;;
9447;SDS011;4762;48.128;11.376;2023-05-08T08:29:21;6.60;;;4.47;;
9447;SDS011;4762;48.128;11.376;2023-05-08T08:31:24;8.20;;;4.80;;
9447;SDS011;4762;48.128;11.376;2023-05-08T08:33:27;8.13;;;4.63;;
9447;SDS011;4762;48.128;11.376;2023-05-08T08:35:29;6.53;;;4.57;;
9447;SDS011;4762;48.128;11.376;2023-05-08T08:37:31;4.30;;;3.10;;
9447;SDS011;4762;48.128;11.376;2023-05-08T08:39:33;8.60;;;4.53;;
9447;SDS011;4762;48.128;11.376;2023-05-08T08:41:37;5.57;;;3.97;;
9447;SDS011;4762;48.128;11.376;2023-05-08T08:43:39;7.40;;;4.93;;
9447;SDS011;4762;48.128;11.376;2023-05-08T08:45:41;7.50;;;3.40;;
9447;SDS011;4762;48.128;11.376;2023-05-08T08:47:44;9.23;;;4.27;;
9447;SDS011;4762;48.128;11.376;2023-05-08T08:49:46;7.03;;;4.73;;
9447;SDS011;4762;48.128;11.376;2023-05-08T08:51:49;16.80;;;4.70;;
9447;SDS011;4762;48.128;11.376;2023-05-08T08:53:54;6.80;;;4.10;;
9447;SDS011;4762;48.128;11.376;2023-05-08T08:55:53;4.77;;;3.60;;
9447;SDS011;4762;48.128;11.376;2023-05-08T08:58:02;7.30;;;4.40;;
9447;SDS011;4762;48.128;11.376;2023-05-08T09:00:01;8.90;;;5.70;;
9447;SDS011;4762;48.128;11.376;2023-05-08T09:02:05;11.63;;;5.10;;
9447;SDS011;4762;48.128;11.376;2023-05-08T09:04:07;5.23;;;3.60;;
9447;SDS011;4762;48.128;11.376;2023-05-08T09:06:09;6.87;;;4.40;;
9447;SDS011;4762;48.128;11.376;2023-05-08T09:08:11;11.77;;;5.53;;
9447;SDS011;4762;48.128;11.376;2023-05-08T09:10:13;7.00;;;4.87;;
9447;SDS011;4762;48.128;11.376;2023-05-08T09:12:16;7.80;;;4.37;;
9447;SDS011;4762;48.128;11.376;2023-05-08T09:14:18;9.00;;;4.50;;
9447;SDS011;4762;48.128;11.376;2023-05-08T09:16:20;6.70;;;4.50;;
9447;SDS011;4762;48.128;11.376;2023-05-08T09:18:22;6.27;;;4.00;;
9447;SDS011;4762;48.128;11.376;2023-05-08T09:20:25;7.07;;;3.90;;
9447;SDS011;4762;48.128;11.376;2023-05-08T09:22:27;5.53;;;4.27;;
9447;SDS011;4762;48.128;11.376;2023-05-08T09:26:43;6.77;;;3.80;;
9447;SDS011;4762;48.128;11.376;2023-05-08T09:28:45;5.60;;;4.20;;
9447;SDS011;4762;48.128;11.376;2023-05-08T09:30:49;7.90;;;4.20;;
9447;SDS011;4762;48.128;11.376;2023-05-08T09:32:53;7.13;;;4.63;;
9447;SDS011;4762;48.128;11.376;2023-05-08T09:34:56;6.27;;;3.80;;
9447;SDS011;4762;48.128;11.376;2023-05-08T09:37:11;10.93;;;5.70;;
9447;SDS011;4762;48.128;11.376;2023-05-08T09:39:13;8.93;;;5.20;;
9447;SDS011;4762;48.128;11.376;2023-05-08T09:41:15;9.07;;;4.93;;
9447;SDS011;4762;48.128;11.376;2023-05-08T09:43:18;7.30;;;4.40;;
9447;SDS011;4762;48.128;11.376;2023-05-08T09:45:25;7.10;;;4.33;;
9447;SDS011;4762;48.128;11.376;2023-05-08T09:47:26;5.83;;;3.80;;
9447;SDS011;4762;48.128;11.376;2023-05-08T09:49:28;7.20;;;4.20;;
9447;SDS011;4762;48.128;11.376;2023-05-08T09:51:31;7.40;;;4.60;;
9447;SDS011;4762;48.128;11.376;2023-05-08T09:53:33;6.90;;;4.57;;
9447;SDS011;4762;48.128;11.376;2023-05-08T09:57:53;8.10;;;4.63;;
9447;SDS011;4762;48.128;11.376;2023-05-08T10:00:00;6.20;;;3.80;;
9447;SDS011;4762;48.128;11.376;2023-05-08T10:02:09;6.10;;;4.73;;
9447;SDS011;4762;48.128;11.376;2023-05-08T10:04:14;6.97;;;4.50;;
9447;SDS011;4762;48.128;11.376;2023-05-08T10:06:16;6.20;;;4.20;;
9447;SDS011;4762;48.128;11.376;2023-05-08T10:08:19;5.93;;;4.20;;
9447;SDS011;4762;48.128;11.376;2023-05-08T10:10:22;6.70;;;4.37;;
9447;SDS011;4762;48.128;11.376;2023-05-08T10:12:24;8.50;;;5.60;;
9447;SDS011;4762;48.128;11.376;2023-05-08T10:14:26;8.10;;;5.23;;
9447;SDS011;4762;48.128;11.376;2023-05-08T10:16:28;8.27;;;5.23;;
9447;SDS011;4762;48.128;11.376;2023-05-08T10:18:30;5.93;;;4.10;;
9447;SDS011;4762;48.128;11.376;2023-05-08T10:20:34;10.10;;;5.50;;
9447;SDS011;4762;48.128;11.376;2023-05-08T10:22:36;7.03;;;4.97;;
9447;SDS011;4762;48.128;11.376;2023-05-08T10:24:38;12.37;;;5.30;;
9447;SDS011;4762;48.128;11.376;2023-05-08T10:26:41;7.27;;;4.73;;
9447;SDS011;4762;48.128;11.376;2023-05-08T10:28:49;8.93;;;5.37;;
9447;SDS011;4762;48.128;11.376;2023-05-08T10:32:59;5.50;;;3.93;;
9447;SDS011;4762;48.128;11.376;2023-05-08T10:35:02;8.30;;;4.90;;
9447;SDS011;4762;48.128;11.376;2023-05-08T10:37:07;8.07;;;4.50;;
9447;SDS011;4762;48.128;11.376;2023-05-08T10:39:08;6.93;;;4.60;;
9447;SDS011;4762;48.128;11.376;2023-05-08T10:41:10;10.07;;;5.80;;
9447;SDS011;4762;48.128;11.376;2023-05-08T10:43:12;6.47;;;4.90;;
9447;SDS011;4762;48.128;11.376;2023-05-08T10:45:14;8.17;;;5.53;;
9447;SDS011;4762;48.128;11.376;2023-05-08T10:49:42;8.00;;;5.10;;
9447;SDS011;4762;48.128;11.376;2023-05-08T10:51:52;7.30;;;3.93;;
9447;SDS011;4762;48.128;11.376;2023-05-08T10:53:56;7.20;;;5.20;;
9447;SDS011;4762;48.128;11.376;2023-05-08T10:55:56;10.57;;;5.40;;
9447;SDS011;4762;48.128;11.376;2023-05-08T10:58:02;7.63;;;5.57;;
9447;SDS011;4762;48.128;11.376;2023-05-08T11:00:09;7.30;;;5.30;;
9447;SDS011;4762;48.128;11.376;2023-05-08T11:02:13;6.50;;;4.93;;
9447;SDS011;4762;48.128;11.376;2023-05-08T11:04:20;8.60;;;4.50;;
9447;SDS011;4762;48.128;11.376;2023-05-08T11:06:40;7.87;;;5.30;;
9447;SDS011;4762;48.128;11.376;2023-05-08T11:08:42;9.60;;;5.90;;
9447;SDS011;4762;48.128;11.376;2023-05-08T11:10:37;10.20;;;6.30;;
9447;SDS011;4762;48.128;11.376;2023-05-08T11:12:39;12.77;;;6.80;;
9447;SDS011;4762;48.128;11.376;2023-05-08T11:14:41;10.90;;;6.03;;
9447;SDS011;4762;48.128;11.376;2023-05-08T11:19:14;6.87;;;4.80;;
9447;SDS011;4762;48.128;11.376;2023-05-08T11:21:19;8.20;;;5.27;;
9447;SDS011;4762;48.128;11.376;2023-05-08T11:23:23;6.90;;;5.20;;
9447;SDS011;4762;48.128;11.376;2023-05-08T11:25:40;10.50;;;6.40;;
9447;SDS011;4762;48.128;11.376;2023-05-08T11:30:21;9.27;;;6.03;;
9447;SDS011;4762;48.128;11.376;2023-05-08T11:34:44;10.57;;;6.40;;
9447;SDS011;4762;48.128;11.376;2023-05-08T11:37:07;7.40;;;4.80;;
9447;SDS011;4762;48.128;11.376;2023-05-08T11:39:07;7.80;;;5.33;;
9447;SDS011;4762;48.128;11.376;2023-05-08T11:41:09;10.37;;;5.90;;
9447;SDS011;4762;48.128;11.376;2023-05-08T11:45:37;13.30;;;7.20;;
9447;SDS011;4762;48.128;11.376;2023-05-08T11:47:40;18.20;;;6.63;;
9447;SDS011;4762;48.128;11.376;2023-05-08T11:49:42;19.93;;;5.67;;
9447;SDS011;4762;48.128;11.376;2023-05-08T11:51:45;9.70;;;6.40;;
9447;SDS011;4762;48.128;11.376;2023-05-08T11:53:46;11.10;;;5.60;;
9447;SDS011;4762;48.128;11.376;2023-05-08T11:55:50;13.83;;;6.83;;
9447;SDS011;4762;48.128;11.376;2023-05-08T11:57:54;9.00;;;5.57;;
9447;SDS011;4762;48.128;11.376;2023-05-08T11:59:56;14.10;;;6.87;;
9447;SDS011;4762;48.128;11.376;2023-05-08T12:01:58;12.63;;;5.30;;
9447;SDS011;4762;48.128;11.376;2023-05-08T12:04:01;8.50;;;5.53;;
9447;SDS011;4762;48.128;11.376;2023-05-08T12:06:03;8.60;;;6.00;;
9447;SDS011;4762;48.128;11.376;2023-05-08T12:08:06;7.77;;;5.50;;
9447;SDS011;4762;48.128;11.376;2023-05-08T12:10:09;10.47;;;6.00;;
9447;SDS011;4762;48.128;11.376;2023-05-08T12:12:11;13.13;;;6.00;;
9447;SDS011;4762;48.128;11.376;2023-05-08T12:14:16;8.03;;;5.23;;
9447;SDS011;4762;48.128;11.376;2023-05-08T12:16:16;7.87;;;4.50;;
9447;SDS011;4762;48.128;11.376;2023-05-08T12:18:18;7.50;;;4.97;;
9447;SDS011;4762;48.128;11.376;2023-05-08T12:20:20;8.43;;;4.87;;
9447;SDS011;4762;48.128;11.376;2023-05-08T12:22:22;10.43;;;6.00;;
9447;SDS011;4762;48.128;11.376;2023-05-08T12:24:25;6.07;;;4.50;;
9447;SDS011;4762;48.128;11.376;2023-05-08T12:26:27;8.53;;;4.90;;
9447;SDS011;4762;48.128;11.376;2023-05-08T12:28:30;7.83;;;5.23;;
9447;SDS011;4762;48.128;11.376;2023-05-08T12:30:33;8.90;;;4.70;;
9447;SDS011;4762;48.128;11.376;2023-05-08T12:32:35;13.63;;;5.30;;
9447;SDS011;4762;48.128;11.376;2023-05-08T12:34:38;8.80;;;5.23;;
9447;SDS011;4762;48.128;11.376;2023-05-08T12:36:40;6.63;;;5.07;;
9447;SDS011;4762;48.128;11.376;2023-05-08T12:38:43;10.60;;;5.50;;
9447;SDS011;4762;48.128;11.376;2023-05-08T12:40:46;8.73;;;4.70;;
9447;SDS011;4762;48.128;11.376;2023-05-08T12:42:48;5.10;;;3.20;;
9447;SDS011;4762;48.128;11.376;2023-05-08T12:44:51;6.30;;;4.00;;
9447;SDS011;4762;48.128;11.376;2023-05-08T12:46:56;8.20;;;5.27;;
9447;SDS011;4762;48.128;11.376;2023-05-08T12:48:59;6.77;;;3.60;;
9447;SDS011;4762;48.128;11.376;2023-05-08T12:51:01;5.80;;;3.87;;
9447;SDS011;4762;48.128;11.376;2023-05-08T12:53:05;6.07;;;3.10;;
9447;SDS011;4762;48.128;11.376;2023-05-08T12:57:23;6.00;;;4.00;;
9447;SDS011;4762;48.128;11.376;2023-05-08T12:59:28;5.10;;;3.47;;
9447;SDS011;4762;48.128;11.376;2023-05-08T13:01:29;8.53;;;4.83;;
9447;SDS011;4762;48.128;11.376;2023-05-08T13:03:32;4.70;;;3.20;;
9447;SDS011;4762;48.128;11.376;2023-05-08T13:05:35;5.50;;;3.83;;